URO544 LTBS-EGHH
Flight info
| Callsign | URO544 |
|---|---|
| Flight time | N/A |
| Altitude | 36000 |
| Route | KEKIK UN127 LMO UN128 FSK UL608 DISOR DCT SKJ DCT LONTA UL608 DOLEV DCT GILUK DCT KULEN DCT ELPEZ DCT NAXAV DCT SAFFA DCT ROLSA DCT BEGAR DCT ETINO DCT SUBIP UM8 ELDAX |
| Aircraft | A346/H-VGDW/C |
Departure
| Time | N/A |
|---|---|
| Airport | Dalaman International Airport (LTBS) |
Arrival
| Time | 2026-05-06 13:45 |
|---|---|
| Airport | Bournemouth Airport (EGHH) |
| Time | Latitude | Longitude | Altitude | Speed | Heading |
|---|---|---|---|---|---|
| 2026-05-06 12:40 | 47.60988 | 8.22187 | 39852 ft | 494 kts | 301° |
| 2026-05-06 12:41 | 47.64933 | 8.13841 | 39848 ft | 494 kts | 301° |
| 2026-05-06 12:41 | 47.68219 | 8.06870 | 39858 ft | 494 kts | 301° |
| 2026-05-06 12:42 | 47.72151 | 7.98504 | 39855 ft | 494 kts | 301° |
| 2026-05-06 12:42 | 47.76084 | 7.90112 | 39857 ft | 495 kts | 301° |
| 2026-05-06 12:43 | 47.80014 | 7.81696 | 39856 ft | 495 kts | 301° |
| 2026-05-06 12:43 | 47.83952 | 7.73236 | 39849 ft | 495 kts | 301° |
| 2026-05-06 12:44 | 47.87866 | 7.64795 | 39851 ft | 495 kts | 301° |
| 2026-05-06 12:44 | 47.91673 | 7.56336 | 39850 ft | 493 kts | 298° |
| 2026-05-06 12:45 | 47.95250 | 7.47582 | 39840 ft | 493 kts | 297° |
| 2026-05-06 12:46 | 48.00557 | 7.34395 | 39840 ft | 492 kts | 297° |
| 2026-05-06 12:46 | 48.04081 | 7.25618 | 39836 ft | 492 kts | 297° |
| 2026-05-06 12:47 | 48.07577 | 7.16882 | 39834 ft | 492 kts | 297° |
| 2026-05-06 12:47 | 48.11103 | 7.08050 | 39839 ft | 492 kts | 297° |
| 2026-05-06 12:48 | 48.14616 | 6.99223 | 39837 ft | 492 kts | 297° |
| 2026-05-06 12:48 | 48.18110 | 6.90411 | 39840 ft | 492 kts | 297° |
| 2026-05-06 12:49 | 48.21591 | 6.81599 | 39851 ft | 491 kts | 297° |
| 2026-05-06 12:49 | 48.25093 | 6.72707 | 39841 ft | 493 kts | 297° |
| 2026-05-06 12:50 | 48.28571 | 6.63851 | 39838 ft | 493 kts | 297° |
| 2026-05-06 12:50 | 48.32044 | 6.54982 | 39832 ft | 493 kts | 297° |
| 2026-05-06 12:51 | 48.35515 | 6.46085 | 39830 ft | 493 kts | 297° |
| 2026-05-06 12:51 | 48.38972 | 6.37190 | 39835 ft | 491 kts | 297° |
| 2026-05-06 12:52 | 48.42425 | 6.28281 | 39836 ft | 492 kts | 297° |
| 2026-05-06 12:52 | 48.45871 | 6.19357 | 39835 ft | 492 kts | 297° |
| 2026-05-06 12:53 | 48.49317 | 6.10401 | 39839 ft | 494 kts | 297° |
| 2026-05-06 12:53 | 48.52776 | 6.01380 | 39843 ft | 495 kts | 297° |
| 2026-05-06 12:54 | 48.56192 | 5.92442 | 39833 ft | 495 kts | 297° |
| 2026-05-06 12:54 | 48.59638 | 5.83401 | 39836 ft | 495 kts | 297° |
| 2026-05-06 12:55 | 48.63068 | 5.74364 | 39835 ft | 495 kts | 297° |
| 2026-05-06 12:55 | 48.66497 | 5.65300 | 39856 ft | 495 kts | 297° |
| 2026-05-06 12:56 | 48.69909 | 5.56247 | 39859 ft | 496 kts | 297° |
| 2026-05-06 12:56 | 48.73321 | 5.47164 | 39840 ft | 496 kts | 297° |
| 2026-05-06 12:57 | 48.76720 | 5.38085 | 39850 ft | 496 kts | 297° |
| 2026-05-06 12:57 | 48.80128 | 5.28947 | 39854 ft | 496 kts | 297° |
| 2026-05-06 12:58 | 48.83520 | 5.19808 | 39860 ft | 496 kts | 297° |
| 2026-05-06 12:58 | 48.86895 | 5.10690 | 39861 ft | 496 kts | 297° |
| 2026-05-06 12:59 | 48.90362 | 5.01640 | 39857 ft | 496 kts | 299° |
| 2026-05-06 12:59 | 48.93963 | 4.92728 | 39856 ft | 496 kts | 299° |
| 2026-05-06 13:00 | 48.97601 | 4.83706 | 39862 ft | 496 kts | 299° |
| 2026-05-06 13:00 | 49.01174 | 4.74787 | 39873 ft | 496 kts | 299° |
| 2026-05-06 13:01 | 49.04754 | 4.65815 | 39875 ft | 496 kts | 299° |
| 2026-05-06 13:01 | 49.08334 | 4.56809 | 39882 ft | 496 kts | 299° |
| 2026-05-06 13:02 | 49.11915 | 4.47766 | 39884 ft | 496 kts | 299° |
| 2026-05-06 13:02 | 49.15477 | 4.38739 | 39893 ft | 495 kts | 299° |
| 2026-05-06 13:03 | 49.19032 | 4.29701 | 39891 ft | 495 kts | 299° |
| 2026-05-06 13:03 | 49.22567 | 4.20685 | 39881 ft | 495 kts | 299° |
| 2026-05-06 13:04 | 49.26105 | 4.11629 | 39886 ft | 494 kts | 298° |
| 2026-05-06 13:04 | 49.29610 | 4.02625 | 39886 ft | 494 kts | 298° |
| 2026-05-06 13:05 | 49.33145 | 3.93515 | 39885 ft | 494 kts | 298° |
| 2026-05-06 13:05 | 49.36646 | 3.84458 | 39884 ft | 494 kts | 298° |
| 2026-05-06 13:06 | 49.40136 | 3.75404 | 39888 ft | 494 kts | 298° |
| 2026-05-06 13:06 | 49.43635 | 3.66290 | 39889 ft | 494 kts | 298° |
| 2026-05-06 13:07 | 49.47128 | 3.57164 | 39899 ft | 494 kts | 298° |
| 2026-05-06 13:07 | 49.50594 | 3.48067 | 39881 ft | 494 kts | 298° |
| 2026-05-06 13:08 | 49.54059 | 3.38950 | 39890 ft | 494 kts | 298° |
| 2026-05-06 13:08 | 49.57531 | 3.29782 | 39892 ft | 494 kts | 298° |
| 2026-05-06 13:09 | 49.60986 | 3.20628 | 39884 ft | 494 kts | 298° |
| 2026-05-06 13:09 | 49.64462 | 3.11383 | 39895 ft | 494 kts | 298° |
| 2026-05-06 13:10 | 49.67887 | 3.02240 | 39889 ft | 494 kts | 298° |
| 2026-05-06 13:10 | 49.71315 | 2.93060 | 39891 ft | 494 kts | 298° |
| 2026-05-06 13:11 | 49.74738 | 2.83860 | 39896 ft | 493 kts | 298° |
| 2026-05-06 13:11 | 49.78157 | 2.74638 | 39894 ft | 493 kts | 298° |
| 2026-05-06 13:12 | 49.81554 | 2.65438 | 39895 ft | 492 kts | 298° |
| 2026-05-06 13:12 | 49.84939 | 2.56244 | 39893 ft | 492 kts | 298° |
| 2026-05-06 13:13 | 49.88322 | 2.47024 | 39901 ft | 491 kts | 298° |
| 2026-05-06 13:13 | 49.91696 | 2.37791 | 39901 ft | 492 kts | 298° |
| 2026-05-06 13:14 | 49.95063 | 2.28545 | 39913 ft | 491 kts | 298° |
| 2026-05-06 13:14 | 49.98439 | 2.19241 | 39913 ft | 491 kts | 298° |
| 2026-05-06 13:15 | 50.01763 | 2.10041 | 39912 ft | 491 kts | 298° |
| 2026-05-06 13:15 | 50.05109 | 2.00761 | 39921 ft | 491 kts | 298° |
| 2026-05-06 13:16 | 50.08446 | 1.91459 | 39922 ft | 491 kts | 297° |
| 2026-05-06 13:16 | 50.11777 | 1.82145 | 39939 ft | 491 kts | 297° |
| 2026-05-06 13:17 | 50.15100 | 1.72830 | 39936 ft | 490 kts | 297° |
| 2026-05-06 13:17 | 50.18397 | 1.63520 | 39943 ft | 490 kts | 297° |
| 2026-05-06 13:18 | 50.21699 | 1.54183 | 39947 ft | 490 kts | 297° |
| 2026-05-06 13:18 | 50.24991 | 1.44856 | 39949 ft | 489 kts | 297° |
| 2026-05-06 13:19 | 50.28247 | 1.35574 | 39948 ft | 490 kts | 297° |
| 2026-05-06 13:19 | 50.31520 | 1.26212 | 39947 ft | 490 kts | 297° |
| 2026-05-06 13:20 | 50.34788 | 1.16840 | 39959 ft | 490 kts | 297° |
| 2026-05-06 13:20 | 50.38045 | 1.07453 | 39957 ft | 490 kts | 297° |
| 2026-05-06 13:21 | 50.41294 | 0.98054 | 39956 ft | 490 kts | 297° |
| 2026-05-06 13:21 | 50.44312 | 0.88486 | 39967 ft | 488 kts | 291° |
| 2026-05-06 13:22 | 50.46512 | 0.78428 | 39962 ft | 486 kts | 285° |
| 2026-05-06 13:22 | 50.48375 | 0.68265 | 39943 ft | 474 kts | 283° |
| 2026-05-06 13:22 | 50.49082 | 0.63259 | 39620 ft | 467 kts | 279° |
| 2026-05-06 13:23 | 50.49606 | 0.58277 | 38998 ft | 468 kts | 278° |
| 2026-05-06 13:23 | 50.50094 | 0.53134 | 38256 ft | 470 kts | 277° |
| 2026-05-06 13:23 | 50.50567 | 0.48043 | 37430 ft | 470 kts | 277° |
| 2026-05-06 13:23 | 50.51037 | 0.42952 | 36272 ft | 471 kts | 278° |
| 2026-05-06 13:24 | 50.51508 | 0.37838 | 35603 ft | 471 kts | 278° |
| 2026-05-06 13:24 | 50.51972 | 0.32819 | 34959 ft | 470 kts | 278° |
| 2026-05-06 13:24 | 50.52443 | 0.27705 | 34100 ft | 475 kts | 278° |
| 2026-05-06 13:24 | 50.52919 | 0.22530 | 32851 ft | 481 kts | 278° |
| 2026-05-06 13:25 | 50.53408 | 0.17249 | 31826 ft | 482 kts | 278° |
| 2026-05-06 13:25 | 50.53882 | 0.12079 | 30703 ft | 485 kts | 278° |
| 2026-05-06 13:25 | 50.54361 | 0.06809 | 29734 ft | 485 kts | 277° |
| 2026-05-06 13:25 | 50.54831 | 0.01579 | 28916 ft | 480 kts | 277° |
| 2026-05-06 13:26 | 50.55291 | -0.03597 | 28082 ft | 477 kts | 278° |
| 2026-05-06 13:26 | 50.55748 | -0.08759 | 27215 ft | 475 kts | 278° |
| 2026-05-06 13:26 | 50.56201 | -0.13882 | 26532 ft | 470 kts | 278° |
| 2026-05-06 13:26 | 50.56647 | -0.18943 | 25972 ft | 463 kts | 277° |
| 2026-05-06 13:27 | 50.57084 | -0.23923 | 24952 ft | 454 kts | 277° |
| 2026-05-06 13:27 | 50.57507 | -0.28784 | 24344 ft | 445 kts | 277° |
| 2026-05-06 13:27 | 50.57925 | -0.33619 | 23954 ft | 445 kts | 277° |
| 2026-05-06 13:27 | 50.58395 | -0.38401 | 23473 ft | 439 kts | 283° |
| 2026-05-06 13:28 | 50.59578 | -0.42797 | 22878 ft | 436 kts | 302° |
| 2026-05-06 13:28 | 50.61526 | -0.46405 | 22345 ft | 431 kts | 314° |
| 2026-05-06 13:28 | 50.63646 | -0.49713 | 21807 ft | 426 kts | 314° |
| 2026-05-06 13:28 | 50.65749 | -0.52992 | 21283 ft | 422 kts | 314° |
| 2026-05-06 13:29 | 50.67779 | -0.56294 | 20749 ft | 417 kts | 308° |
| 2026-05-06 13:29 | 50.69264 | -0.60182 | 20213 ft | 411 kts | 292° |
| 2026-05-06 13:29 | 50.70184 | -0.64424 | 19729 ft | 406 kts | 287° |
| 2026-05-06 13:29 | 50.71025 | -0.68668 | 19227 ft | 402 kts | 287° |
| 2026-05-06 13:30 | 50.71854 | -0.72865 | 18730 ft | 399 kts | 287° |
| 2026-05-06 13:30 | 50.72684 | -0.77028 | 18254 ft | 396 kts | 287° |
| 2026-05-06 13:30 | 50.73516 | -0.81169 | 17712 ft | 395 kts | 287° |
| 2026-05-06 13:30 | 50.74349 | -0.85307 | 17173 ft | 396 kts | 287° |
| 2026-05-06 13:31 | 50.74904 | -0.88073 | 16818 ft | 397 kts | 287° |
| 2026-05-06 13:31 | 50.76002 | -0.93555 | 16123 ft | 391 kts | 288° |
| 2026-05-06 13:31 | 50.76820 | -0.97643 | 15614 ft | 388 kts | 288° |
| 2026-05-06 13:31 | 50.77563 | -1.01712 | 15090 ft | 385 kts | 281° |
| 2026-05-06 13:32 | 50.77774 | -1.05909 | 14598 ft | 382 kts | 271° |
| 2026-05-06 13:32 | 50.77755 | -1.08736 | 14271 ft | 380 kts | 269° |
| 2026-05-06 13:32 | 50.77692 | -1.12895 | 13783 ft | 377 kts | 270° |
| 2026-05-06 13:32 | 50.77628 | -1.17021 | 13240 ft | 373 kts | 270° |
| 2026-05-06 13:33 | 50.77573 | -1.21115 | 12704 ft | 370 kts | 270° |
| 2026-05-06 13:33 | 50.77816 | -1.25129 | 12150 ft | 365 kts | 289° |
| 2026-05-06 13:33 | 50.79089 | -1.28465 | 11977 ft | 348 kts | 316° |
| 2026-05-06 13:33 | 50.81088 | -1.30388 | 11920 ft | 332 kts | 342° |
| 2026-05-06 13:34 | 50.83350 | -1.30766 | 11625 ft | 325 kts | 360° |
| 2026-05-06 13:34 | 50.85556 | -1.30869 | 11318 ft | 319 kts | 354° |
| 2026-05-06 13:34 | 50.87759 | -1.31354 | 11010 ft | 312 kts | 348° |
| 2026-05-06 13:34 | 50.89834 | -1.32064 | 10714 ft | 306 kts | 345° |
| 2026-05-06 13:35 | 50.91877 | -1.32894 | 10420 ft | 300 kts | 343° |
| 2026-05-06 13:35 | 50.93739 | -1.34262 | 10089 ft | 295 kts | 319° |
| 2026-05-06 13:35 | 50.94879 | -1.36903 | 9733 ft | 293 kts | 288° |
| 2026-05-06 13:35 | 50.94955 | -1.40101 | 9329 ft | 295 kts | 257° |
| 2026-05-06 13:36 | 50.94024 | -1.42987 | 8956 ft | 295 kts | 238° |
| 2026-05-06 13:36 | 50.92859 | -1.45662 | 8553 ft | 294 kts | 239° |
| 2026-05-06 13:36 | 50.91759 | -1.48382 | 8164 ft | 291 kts | 241° |
| 2026-05-06 13:36 | 50.90749 | -1.51154 | 7771 ft | 289 kts | 244° |
| 2026-05-06 13:37 | 50.89803 | -1.53954 | 7383 ft | 287 kts | 245° |
| 2026-05-06 13:37 | 50.88896 | -1.56766 | 7003 ft | 286 kts | 246° |
| 2026-05-06 13:37 | 50.88013 | -1.59579 | 6627 ft | 284 kts | 246° |
| 2026-05-06 13:37 | 50.87144 | -1.62391 | 6247 ft | 283 kts | 247° |
| 2026-05-06 13:38 | 50.86372 | -1.65246 | 5834 ft | 281 kts | 255° |
| 2026-05-06 13:38 | 50.85850 | -1.68223 | 5446 ft | 279 kts | 258° |
| 2026-05-06 13:38 | 50.85393 | -1.71210 | 5043 ft | 278 kts | 259° |
| 2026-05-06 13:38 | 50.84942 | -1.74197 | 4660 ft | 279 kts | 259° |
| 2026-05-06 13:39 | 50.84497 | -1.77189 | 4264 ft | 279 kts | 259° |
| 2026-05-06 13:39 | 50.84056 | -1.80155 | 3798 ft | 273 kts | 259° |
| 2026-05-06 13:39 | 50.83629 | -1.83040 | 3398 ft | 264 kts | 259° |
| 2026-05-06 13:39 | 50.83228 | -1.85787 | 3005 ft | 255 kts | 259° |
| 2026-05-06 13:40 | 50.82836 | -1.88491 | 2590 ft | 249 kts | 259° |
| 2026-05-06 13:40 | 50.82458 | -1.91175 | 2256 ft | 251 kts | 259° |
| 2026-05-06 13:40 | 50.82077 | -1.93879 | 1990 ft | 249 kts | 259° |
| 2026-05-06 13:40 | 50.81708 | -1.96480 | 1983 ft | 236 kts | 260° |
| 2026-05-06 13:41 | 50.81352 | -1.98941 | 1961 ft | 223 kts | 259° |
| 2026-05-06 13:41 | 50.80733 | -2.01093 | 1912 ft | 215 kts | 226° |
| 2026-05-06 13:41 | 50.79474 | -2.02272 | 1977 ft | 211 kts | 189° |
| 2026-05-06 13:41 | 50.78073 | -2.02086 | 2033 ft | 202 kts | 159° |
| 2026-05-06 13:42 | 50.76786 | -2.01205 | 2008 ft | 197 kts | 147° |
| 2026-05-06 13:42 | 50.75928 | -1.99713 | 1911 ft | 177 kts | 107° |
| 2026-05-06 13:42 | 50.75807 | -1.97843 | 1731 ft | 168 kts | 81° |
| 2026-05-06 13:42 | 50.76021 | -1.96041 | 1462 ft | 164 kts | 73° |
| 2026-05-06 13:43 | 50.76321 | -1.94358 | 1217 ft | 156 kts | 72° |
| 2026-05-06 13:43 | 50.76613 | -1.92696 | 1017 ft | 157 kts | 72° |
| 2026-05-06 13:43 | 50.76888 | -1.91027 | 828 ft | 157 kts | 72° |
| 2026-05-06 13:43 | 50.77154 | -1.89360 | 633 ft | 156 kts | 72° |
| 2026-05-06 13:44 | 50.77423 | -1.87703 | 385 ft | 155 kts | 71° |
| 2026-05-06 13:44 | 50.77709 | -1.86052 | 160 ft | 157 kts | 75° |
| 2026-05-06 13:44 | 50.77986 | -1.84391 | 49 ft | 147 kts | 74° |
| 2026-05-06 13:44 | 50.78182 | -1.83238 | 53 ft | 70 kts | 75° |
| 2026-05-06 13:45 | 50.78232 | -1.82839 | 51 ft | 16 kts | 106° |
| 2026-05-06 13:45 | 50.78220 | -1.82785 | 50 ft | 4 kts | 110° |
| 2026-05-06 13:45 | 50.78219 | -1.82742 | 51 ft | 0 kts | 68° |
| 2026-05-06 13:46 | 50.78221 | -1.82736 | 51 ft | 1 kts | 57° |
| 2026-05-06 13:46 | 50.78227 | -1.82726 | 51 ft | 2 kts | 44° |
| 2026-05-06 13:46 | 50.78246 | -1.82717 | 51 ft | 4 kts | 354° |
| 2026-05-06 13:46 | 50.78256 | -1.82752 | 49 ft | 7 kts | 261° |
| 2026-05-06 13:47 | 50.78231 | -1.82895 | 50 ft | 21 kts | 254° |
| 2026-05-06 13:47 | 50.78189 | -1.83157 | 52 ft | 26 kts | 256° |
| 2026-05-06 13:47 | 50.78145 | -1.83440 | 51 ft | 27 kts | 253° |
| 2026-05-06 13:47 | 50.78092 | -1.83736 | 52 ft | 29 kts | 254° |
| 2026-05-06 13:48 | 50.78092 | -1.83908 | 50 ft | 6 kts | 335° |
| 2026-05-06 13:48 | 50.78145 | -1.83933 | 53 ft | 9 kts | 345° |
| 2026-05-06 13:48 | 50.78219 | -1.83965 | 48 ft | 12 kts | 345° |
| 2026-05-06 13:48 | 50.78332 | -1.84014 | 48 ft | 22 kts | 345° |
| 2026-05-06 13:49 | 50.78493 | -1.84079 | 53 ft | 25 kts | 346° |
| 2026-05-06 13:49 | 50.78622 | -1.84078 | 51 ft | 7 kts | 66° |
| 2026-05-06 13:49 | 50.78625 | -1.84052 | 51 ft | 3 kts | 73° |
| 2026-05-06 13:49 | 50.78627 | -1.84044 | 53 ft | 0 kts | 73° |